BWA711 TBPB-TLPC
Flight info
| Callsign | BWA711 |
|---|---|
| Flight time | 0h 43m |
| Altitude | 12000 |
| Route | BGI TEDDY SLU |
| Aircraft | AT76/M-SDFGHIRWY/LB1 |
Departure
| Time | 2026-04-17 22:48 |
|---|---|
| Airport | Grantley Adams International Airport (TBPB) |
Arrival
| Time | 2026-04-17 23:31 |
|---|---|
| Airport | George F. L. Charles Airport (TLPC) |
| Time | Latitude | Longitude | Altitude | Speed | Heading |
|---|---|---|---|---|---|
| 2026-04-17 22:27 | 13.07794 | -59.48890 | 174 ft | 0 kts | 347° |
| 2026-04-17 22:39 | 13.07800 | -59.48888 | 174 ft | 1 kts | 25° |
| 2026-04-17 22:39 | 13.07782 | -59.48875 | 174 ft | 5 kts | 167° |
| 2026-04-17 22:40 | 13.07741 | -59.48866 | 174 ft | 7 kts | 167° |
| 2026-04-17 22:40 | 13.07705 | -59.48898 | 174 ft | 12 kts | 255° |
| 2026-04-17 22:40 | 13.07678 | -59.49010 | 174 ft | 19 kts | 255° |
| 2026-04-17 22:40 | 13.07644 | -59.49152 | 174 ft | 22 kts | 256° |
| 2026-04-17 22:41 | 13.07595 | -59.49350 | 174 ft | 43 kts | 255° |
| 2026-04-17 22:41 | 13.07542 | -59.49569 | 174 ft | 29 kts | 256° |
| 2026-04-17 22:41 | 13.07490 | -59.49786 | 174 ft | 29 kts | 256° |
| 2026-04-17 22:41 | 13.07460 | -59.49907 | 174 ft | 19 kts | 256° |
| 2026-04-17 22:42 | 13.07426 | -59.50042 | 174 ft | 20 kts | 255° |
| 2026-04-17 22:42 | 13.07388 | -59.50182 | 174 ft | 21 kts | 256° |
| 2026-04-17 22:42 | 13.07356 | -59.50334 | 174 ft | 23 kts | 256° |
| 2026-04-17 22:42 | 13.07331 | -59.50431 | 175 ft | 15 kts | 255° |
| 2026-04-17 22:43 | 13.07301 | -59.50554 | 175 ft | 20 kts | 255° |
| 2026-04-17 22:43 | 13.07268 | -59.50684 | 174 ft | 10 kts | 255° |
| 2026-04-17 22:43 | 13.07219 | -59.50728 | 174 ft | 2 kts | 168° |
| 2026-04-17 22:46 | 13.07217 | -59.50727 | 174 ft | 1 kts | 168° |
| 2026-04-17 22:46 | 13.07195 | -59.50723 | 174 ft | 4 kts | 168° |
| 2026-04-17 22:46 | 13.07162 | -59.50714 | 174 ft | 5 kts | 163° |
| 2026-04-17 22:46 | 13.07127 | -59.50702 | 174 ft | 6 kts | 152° |
| 2026-04-17 22:47 | 13.07110 | -59.50654 | 174 ft | 6 kts | 83° |
| 2026-04-17 22:47 | 13.07177 | -59.50411 | 175 ft | 66 kts | 77° |
| 2026-04-17 22:47 | 13.07325 | -59.49764 | 194 ft | 116 kts | 76° |
| 2026-04-17 22:47 | 13.07559 | -59.48941 | 579 ft | 123 kts | 75° |
| 2026-04-17 22:48 | 13.07759 | -59.48099 | 1125 ft | 119 kts | 75° |
| 2026-04-17 22:48 | 13.07977 | -59.47252 | 1572 ft | 129 kts | 75° |
| 2026-04-17 22:48 | 13.08336 | -59.46410 | 2159 ft | 130 kts | 48° |
| 2026-04-17 22:48 | 13.09244 | -59.46182 | 2637 ft | 155 kts | 348° |
| 2026-04-17 22:49 | 13.10019 | -59.46979 | 3094 ft | 169 kts | 294° |
| 2026-04-17 22:49 | 13.10185 | -59.48180 | 3497 ft | 181 kts | 270° |
| 2026-04-17 22:49 | 13.10150 | -59.49526 | 3832 ft | 193 kts | 269° |
| 2026-04-17 22:49 | 13.10102 | -59.50921 | 4217 ft | 200 kts | 272° |
| 2026-04-17 22:50 | 13.10235 | -59.52372 | 4639 ft | 205 kts | 281° |
| 2026-04-17 22:50 | 13.10458 | -59.53771 | 5144 ft | 199 kts | 283° |
| 2026-04-17 22:50 | 13.10690 | -59.55171 | 5496 ft | 197 kts | 281° |
| 2026-04-17 22:50 | 13.11177 | -59.56443 | 5772 ft | 193 kts | 315° |
| 2026-04-17 22:51 | 13.12196 | -59.57322 | 6034 ft | 192 kts | 316° |
| 2026-04-17 22:51 | 13.13097 | -59.58343 | 6316 ft | 193 kts | 313° |
| 2026-04-17 22:51 | 13.13992 | -59.59372 | 6606 ft | 194 kts | 313° |
| 2026-04-17 22:51 | 13.14874 | -59.60427 | 6878 ft | 195 kts | 310° |
| 2026-04-17 22:52 | 13.15711 | -59.61540 | 7130 ft | 198 kts | 306° |
| 2026-04-17 22:52 | 13.16485 | -59.62708 | 7426 ft | 197 kts | 303° |
| 2026-04-17 22:52 | 13.17213 | -59.63885 | 7703 ft | 198 kts | 302° |
| 2026-04-17 22:52 | 13.17942 | -59.65088 | 7957 ft | 200 kts | 302° |
| 2026-04-17 22:53 | 13.18687 | -59.66297 | 8235 ft | 200 kts | 302° |
| 2026-04-17 22:53 | 13.19432 | -59.67500 | 8530 ft | 200 kts | 302° |
| 2026-04-17 22:53 | 13.20181 | -59.68709 | 8798 ft | 201 kts | 302° |
| 2026-04-17 22:53 | 13.20936 | -59.69927 | 9069 ft | 202 kts | 302° |
| 2026-04-17 22:54 | 13.21688 | -59.71144 | 9353 ft | 202 kts | 302° |
| 2026-04-17 22:54 | 13.22434 | -59.72346 | 9621 ft | 202 kts | 301° |
| 2026-04-17 22:54 | 13.23198 | -59.73575 | 9867 ft | 204 kts | 301° |
| 2026-04-17 22:54 | 13.23959 | -59.74804 | 10106 ft | 204 kts | 301° |
| 2026-04-17 22:55 | 13.24723 | -59.76038 | 10326 ft | 205 kts | 302° |
| 2026-04-17 22:55 | 13.25492 | -59.77279 | 10564 ft | 206 kts | 301° |
| 2026-04-17 22:55 | 13.26255 | -59.78519 | 10799 ft | 206 kts | 301° |
| 2026-04-17 22:55 | 13.27013 | -59.79755 | 11031 ft | 207 kts | 301° |
| 2026-04-17 22:56 | 13.27785 | -59.81009 | 11245 ft | 208 kts | 301° |
| 2026-04-17 22:56 | 13.28563 | -59.82270 | 11468 ft | 209 kts | 300° |
| 2026-04-17 22:56 | 13.29347 | -59.83537 | 11695 ft | 210 kts | 300° |
| 2026-04-17 22:56 | 13.29866 | -59.84377 | 11822 ft | 211 kts | 301° |
| 2026-04-17 22:57 | 13.30931 | -59.86092 | 11941 ft | 219 kts | 301° |
| 2026-04-17 22:57 | 13.31766 | -59.87424 | 11976 ft | 224 kts | 301° |
| 2026-04-17 22:57 | 13.32620 | -59.88787 | 11996 ft | 230 kts | 300° |
| 2026-04-17 22:57 | 13.33208 | -59.89732 | 12005 ft | 234 kts | 300° |
| 2026-04-17 22:58 | 13.34091 | -59.91155 | 12006 ft | 239 kts | 300° |
| 2026-04-17 22:58 | 13.34973 | -59.92589 | 12007 ft | 242 kts | 300° |
| 2026-04-17 22:58 | 13.35884 | -59.94056 | 12009 ft | 245 kts | 301° |
| 2026-04-17 22:58 | 13.36796 | -59.95547 | 12015 ft | 247 kts | 301° |
| 2026-04-17 22:59 | 13.37713 | -59.97048 | 12015 ft | 249 kts | 300° |
| 2026-04-17 22:59 | 13.38641 | -59.98554 | 12017 ft | 250 kts | 300° |
| 2026-04-17 22:59 | 13.39572 | -60.00067 | 12018 ft | 251 kts | 301° |
| 2026-04-17 22:59 | 13.40507 | -60.01582 | 12015 ft | 252 kts | 301° |
| 2026-04-17 23:00 | 13.41457 | -60.03103 | 12018 ft | 252 kts | 301° |
| 2026-04-17 23:00 | 13.42387 | -60.04607 | 12018 ft | 253 kts | 301° |
| 2026-04-17 23:00 | 13.43334 | -60.06138 | 12024 ft | 254 kts | 301° |
| 2026-04-17 23:00 | 13.44283 | -60.07678 | 12023 ft | 255 kts | 300° |
| 2026-04-17 23:01 | 13.45242 | -60.09215 | 12022 ft | 256 kts | 301° |
| 2026-04-17 23:01 | 13.46205 | -60.10754 | 12022 ft | 256 kts | 301° |
| 2026-04-17 23:01 | 13.47163 | -60.12299 | 12020 ft | 257 kts | 301° |
| 2026-04-17 23:01 | 13.48114 | -60.13828 | 12020 ft | 257 kts | 301° |
| 2026-04-17 23:02 | 13.49070 | -60.15381 | 12023 ft | 257 kts | 301° |
| 2026-04-17 23:02 | 13.50029 | -60.16933 | 12019 ft | 257 kts | 301° |
| 2026-04-17 23:02 | 13.50990 | -60.18487 | 12023 ft | 258 kts | 300° |
| 2026-04-17 23:02 | 13.51955 | -60.20044 | 12022 ft | 259 kts | 300° |
| 2026-04-17 23:03 | 13.52917 | -60.21608 | 12021 ft | 259 kts | 300° |
| 2026-04-17 23:03 | 13.53879 | -60.23175 | 12022 ft | 259 kts | 300° |
| 2026-04-17 23:03 | 13.54844 | -60.24737 | 12025 ft | 258 kts | 301° |
| 2026-04-17 23:03 | 13.55799 | -60.26278 | 12025 ft | 259 kts | 301° |
| 2026-04-17 23:04 | 13.56763 | -60.27840 | 12022 ft | 259 kts | 300° |
| 2026-04-17 23:04 | 13.57724 | -60.29404 | 12021 ft | 259 kts | 300° |
| 2026-04-17 23:04 | 13.58685 | -60.30965 | 12023 ft | 258 kts | 301° |
| 2026-04-17 23:04 | 13.59647 | -60.32522 | 12023 ft | 258 kts | 301° |
| 2026-04-17 23:05 | 13.60610 | -60.34079 | 12022 ft | 258 kts | 301° |
| 2026-04-17 23:05 | 13.61570 | -60.35635 | 12020 ft | 258 kts | 300° |
| 2026-04-17 23:05 | 13.62529 | -60.37196 | 12023 ft | 257 kts | 301° |
| 2026-04-17 23:05 | 13.63483 | -60.38751 | 12024 ft | 257 kts | 300° |
| 2026-04-17 23:06 | 13.64445 | -60.40309 | 12021 ft | 257 kts | 300° |
| 2026-04-17 23:06 | 13.65401 | -60.41864 | 12024 ft | 258 kts | 301° |
| 2026-04-17 23:06 | 13.66360 | -60.43424 | 12025 ft | 258 kts | 301° |
| 2026-04-17 23:06 | 13.67310 | -60.44959 | 12025 ft | 258 kts | 301° |
| 2026-04-17 23:07 | 13.68270 | -60.46521 | 12024 ft | 258 kts | 301° |
| 2026-04-17 23:07 | 13.69231 | -60.48085 | 12024 ft | 258 kts | 301° |
| 2026-04-17 23:07 | 13.70193 | -60.49644 | 12026 ft | 258 kts | 301° |
| 2026-04-17 23:07 | 13.71154 | -60.51201 | 12027 ft | 257 kts | 300° |
| 2026-04-17 23:08 | 13.72102 | -60.52744 | 12022 ft | 257 kts | 301° |
| 2026-04-17 23:08 | 13.73053 | -60.54296 | 12024 ft | 256 kts | 301° |
| 2026-04-17 23:08 | 13.74002 | -60.55850 | 12023 ft | 256 kts | 301° |
| 2026-04-17 23:08 | 13.74949 | -60.57403 | 12024 ft | 256 kts | 300° |
| 2026-04-17 23:09 | 13.75897 | -60.58953 | 12025 ft | 256 kts | 301° |
| 2026-04-17 23:09 | 13.76829 | -60.60488 | 12027 ft | 256 kts | 300° |
| 2026-04-17 23:09 | 13.77769 | -60.62019 | 11980 ft | 250 kts | 301° |
| 2026-04-17 23:09 | 13.78695 | -60.63528 | 11776 ft | 250 kts | 301° |
| 2026-04-17 23:10 | 13.79632 | -60.65060 | 11412 ft | 256 kts | 301° |
| 2026-04-17 23:10 | 13.80593 | -60.66628 | 11055 ft | 260 kts | 301° |
| 2026-04-17 23:10 | 13.81567 | -60.68210 | 10705 ft | 263 kts | 301° |
| 2026-04-17 23:10 | 13.82551 | -60.69813 | 10335 ft | 265 kts | 301° |
| 2026-04-17 23:11 | 13.83539 | -60.71425 | 10006 ft | 267 kts | 302° |
| 2026-04-17 23:11 | 13.84518 | -60.73024 | 9649 ft | 268 kts | 302° |
| 2026-04-17 23:11 | 13.85513 | -60.74648 | 9266 ft | 268 kts | 302° |
| 2026-04-17 23:11 | 13.86374 | -60.76336 | 8882 ft | 266 kts | 285° |
| 2026-04-17 23:12 | 13.86530 | -60.78222 | 8512 ft | 263 kts | 271° |
| 2026-04-17 23:12 | 13.86664 | -60.80106 | 8147 ft | 264 kts | 275° |
| 2026-04-17 23:12 | 13.86776 | -60.82002 | 7778 ft | 266 kts | 271° |
| 2026-04-17 23:12 | 13.86761 | -60.83889 | 7426 ft | 267 kts | 269° |
| 2026-04-17 23:13 | 13.86725 | -60.85809 | 7073 ft | 269 kts | 269° |
| 2026-04-17 23:13 | 13.86681 | -60.87741 | 6720 ft | 270 kts | 269° |
| 2026-04-17 23:13 | 13.86632 | -60.89665 | 6475 ft | 267 kts | 269° |
| 2026-04-17 23:13 | 13.86581 | -60.91567 | 6247 ft | 264 kts | 268° |
| 2026-04-17 23:14 | 13.86532 | -60.93441 | 6136 ft | 258 kts | 268° |
| 2026-04-17 23:14 | 13.86482 | -60.95267 | 6084 ft | 254 kts | 268° |
| 2026-04-17 23:14 | 13.86424 | -60.97087 | 6070 ft | 259 kts | 268° |
| 2026-04-17 23:14 | 13.86371 | -60.98959 | 6048 ft | 263 kts | 268° |
| 2026-04-17 23:15 | 13.86321 | -61.00852 | 6052 ft | 265 kts | 268° |
| 2026-04-17 23:15 | 13.86266 | -61.02752 | 6041 ft | 262 kts | 268° |
| 2026-04-17 23:15 | 13.86222 | -61.04613 | 5821 ft | 260 kts | 268° |
| 2026-04-17 23:15 | 13.86176 | -61.06488 | 5469 ft | 263 kts | 268° |
| 2026-04-17 23:16 | 13.86136 | -61.08357 | 5086 ft | 255 kts | 269° |
| 2026-04-17 23:16 | 13.86101 | -61.10118 | 4736 ft | 244 kts | 268° |
| 2026-04-17 23:16 | 13.86063 | -61.11844 | 4369 ft | 244 kts | 268° |
| 2026-04-17 23:16 | 13.86261 | -61.13540 | 3993 ft | 238 kts | 294° |
| 2026-04-17 23:17 | 13.87300 | -61.14818 | 3631 ft | 233 kts | 331° |
| 2026-04-17 23:17 | 13.88747 | -61.15517 | 3280 ft | 228 kts | 341° |
| 2026-04-17 23:17 | 13.90241 | -61.16021 | 2915 ft | 223 kts | 352° |
| 2026-04-17 23:17 | 13.91779 | -61.16311 | 2519 ft | 225 kts | 354° |
| 2026-04-17 23:18 | 13.93294 | -61.16446 | 2306 ft | 209 kts | 13° |
| 2026-04-17 23:18 | 13.94612 | -61.16045 | 2222 ft | 195 kts | 22° |
| 2026-04-17 23:18 | 13.95865 | -61.15612 | 2167 ft | 184 kts | 23° |
| 2026-04-17 23:18 | 13.96947 | -61.15087 | 2142 ft | 161 kts | 48° |
| 2026-04-17 23:19 | 13.97505 | -61.14173 | 2136 ft | 144 kts | 63° |
| 2026-04-17 23:19 | 13.97999 | -61.13293 | 2135 ft | 144 kts | 63° |
| 2026-04-17 23:19 | 13.98455 | -61.12354 | 2140 ft | 149 kts | 70° |
| 2026-04-17 23:19 | 13.98771 | -61.11491 | 2139 ft | 151 kts | 71° |
| 2026-04-17 23:20 | 13.99064 | -61.10618 | 2141 ft | 148 kts | 73° |
| 2026-04-17 23:20 | 13.99351 | -61.09589 | 1992 ft | 151 kts | 76° |
| 2026-04-17 23:21 | 13.99580 | -61.08539 | 1801 ft | 154 kts | 77° |
| 2026-04-17 23:21 | 13.99841 | -61.07480 | 1662 ft | 150 kts | 73° |
| 2026-04-17 23:21 | 14.00127 | -61.06477 | 1496 ft | 135 kts | 73° |
| 2026-04-17 23:21 | 14.00348 | -61.05646 | 1394 ft | 112 kts | 77° |
| 2026-04-17 23:22 | 14.00542 | -61.04905 | 1216 ft | 109 kts | 74° |
| 2026-04-17 23:22 | 14.00759 | -61.04124 | 1030 ft | 118 kts | 77° |
| 2026-04-17 23:22 | 14.00975 | -61.03261 | 782 ft | 130 kts | 77° |
| 2026-04-17 23:22 | 14.01187 | -61.02388 | 630 ft | 123 kts | 73° |
| 2026-04-17 23:23 | 14.01409 | -61.01546 | 430 ft | 119 kts | 73° |
| 2026-04-17 23:23 | 14.01629 | -61.00741 | 166 ft | 116 kts | 75° |
| 2026-04-17 23:23 | 14.01824 | -60.99970 | 52 ft | 110 kts | 75° |
| 2026-04-17 23:23 | 14.02015 | -60.99253 | 56 ft | 106 kts | 76° |
| 2026-04-17 23:24 | 14.02329 | -60.98486 | 374 ft | 130 kts | 53° |
| 2026-04-17 23:24 | 14.03138 | -60.98090 | 838 ft | 142 kts | 9° |
| 2026-04-17 23:24 | 14.04126 | -60.98481 | 1199 ft | 163 kts | 326° |
| 2026-04-17 23:24 | 14.04750 | -60.99513 | 1520 ft | 176 kts | 286° |
| 2026-04-17 23:25 | 14.04864 | -61.00773 | 1779 ft | 188 kts | 266° |
| 2026-04-17 23:25 | 14.04354 | -61.01993 | 2005 ft | 176 kts | 234° |
| 2026-04-17 23:25 | 14.03747 | -61.03069 | 1994 ft | 174 kts | 242° |
| 2026-04-17 23:25 | 14.03360 | -61.04240 | 1932 ft | 170 kts | 263° |
| 2026-04-17 23:26 | 14.03286 | -61.05422 | 1980 ft | 163 kts | 267° |
| 2026-04-17 23:26 | 14.03208 | -61.06609 | 1943 ft | 161 kts | 266° |
| 2026-04-17 23:26 | 14.03168 | -61.07725 | 1993 ft | 157 kts | 271° |
| 2026-04-17 23:26 | 14.03165 | -61.08873 | 1970 ft | 153 kts | 272° |
| 2026-04-17 23:27 | 14.03213 | -61.09976 | 2115 ft | 157 kts | 270° |
| 2026-04-17 23:27 | 14.02899 | -61.10970 | 2098 ft | 153 kts | 216° |
| 2026-04-17 23:27 | 14.01940 | -61.11159 | 1996 ft | 138 kts | 146° |
| 2026-04-17 23:27 | 14.01413 | -61.10439 | 1963 ft | 125 kts | 106° |
| 2026-04-17 23:28 | 14.01149 | -61.09659 | 2148 ft | 102 kts | 105° |
| 2026-04-17 23:28 | 14.00934 | -61.08955 | 1991 ft | 104 kts | 99° |
| 2026-04-17 23:28 | 14.00777 | -61.08210 | 1930 ft | 107 kts | 97° |
| 2026-04-17 23:28 | 14.00678 | -61.07449 | 1856 ft | 107 kts | 93° |
| 2026-04-17 23:29 | 14.00649 | -61.06673 | 1757 ft | 107 kts | 88° |
| 2026-04-17 23:29 | 14.00688 | -61.05949 | 1615 ft | 102 kts | 85° |
| 2026-04-17 23:29 | 14.00749 | -61.05208 | 1396 ft | 104 kts | 85° |
| 2026-04-17 23:29 | 14.00807 | -61.04443 | 1085 ft | 112 kts | 83° |
| 2026-04-17 23:30 | 14.00936 | -61.03638 | 855 ft | 113 kts | 81° |
| 2026-04-17 23:30 | 14.01094 | -61.02857 | 725 ft | 105 kts | 77° |
| 2026-04-17 23:30 | 14.01269 | -61.02104 | 450 ft | 109 kts | 76° |
| 2026-04-17 23:30 | 14.01453 | -61.01362 | 268 ft | 107 kts | 72° |
| 2026-04-17 23:31 | 14.01657 | -61.00641 | 154 ft | 105 kts | 77° |
| 2026-04-17 23:31 | 14.01831 | -60.99938 | 42 ft | 93 kts | 76° |
| 2026-04-17 23:31 | 14.01955 | -60.99468 | 24 ft | 13 kts | 70° |
| 2026-04-17 23:31 | 14.01987 | -60.99399 | 23 ft | 9 kts | 59° |
| 2026-04-17 23:32 | 14.01985 | -60.99375 | 22 ft | 1 kts | 170° |
| 2026-04-17 23:32 | 14.01971 | -60.99423 | 22 ft | 11 kts | 275° |
| 2026-04-17 23:32 | 14.01989 | -60.99491 | 24 ft | 1 kts | 289° |
| 2026-04-17 23:32 | 14.02001 | -60.99536 | 24 ft | 10 kts | 277° |
| 2026-04-17 23:33 | 14.02006 | -60.99565 | 28 ft | 2 kts | 329° |
| 2026-04-17 23:33 | 14.02027 | -60.99568 | 24 ft | 1 kts | 59° |
| 2026-04-17 23:33 | 14.02024 | -60.99564 | 24 ft | 1 kts | 116° |
| 2026-04-17 23:33 | 14.02022 | -60.99562 | 24 ft | 0 kts | 137° |